createdAt,value
2022-09-27T00:01:10.010Z,64.00
2022-09-27T00:03:36.931Z,63.90
2022-09-27T00:06:08.342Z,63.90
2022-09-27T00:08:35.765Z,64.00
2022-09-27T00:11:04.154Z,64.10
2022-09-27T00:13:30.831Z,64.10
2022-09-27T00:16:01.664Z,64.10
2022-09-27T00:18:28.542Z,64.40
2022-09-27T00:20:55.225Z,64.20
2022-09-27T00:23:21.864Z,64.00
2022-09-27T00:25:58.555Z,64.10
2022-09-27T00:28:25.832Z,64.10
2022-09-27T00:30:53.418Z,64.30
2022-09-27T00:33:20.261Z,64.00
2022-09-27T00:35:46.948Z,64.20
2022-09-27T00:38:13.681Z,64.30
2022-09-27T00:40:40.905Z,64.10
2022-09-27T00:43:14.946Z,64.00
2022-09-27T00:45:41.686Z,63.90
2022-09-27T00:48:08.412Z,64.10
2022-09-27T00:50:40.899Z,64.30
2022-09-27T00:53:16.796Z,64.20
2022-09-27T00:55:49.570Z,64.10
2022-09-27T00:58:18.602Z,64.10
2022-09-27T01:00:48.331Z,64.10
2022-09-27T01:03:22.134Z,64.20
2022-09-27T01:05:48.991Z,64.10
2022-09-27T01:08:15.630Z,64.00
2022-09-27T01:10:51.898Z,64.00
2022-09-27T01:13:28.108Z,64.00
2022-09-27T01:16:01.909Z,64.10
2022-09-27T01:18:32.443Z,64.10
2022-09-27T01:21:22.702Z,64.00
2022-09-27T01:23:58.858Z,63.90
2022-09-27T01:26:31.455Z,64.00
2022-09-27T01:29:11.213Z,63.80
2022-09-27T01:31:55.354Z,63.60
2022-09-27T01:34:25.111Z,64.10
2022-09-27T01:37:02.258Z,63.90
2022-09-27T01:39:38.087Z,63.70
2022-09-27T01:42:23.536Z,64.10
2022-09-27T01:44:52.900Z,63.80
2022-09-27T01:47:24.492Z,63.70
2022-09-27T01:49:53.847Z,64.00
2022-09-27T01:52:22.728Z,64.00
2022-09-27T01:54:53.071Z,63.80
2022-09-27T01:57:22.417Z,63.80
2022-09-27T01:59:55.662Z,64.00
2022-09-27T02:02:26.976Z,63.80
2022-09-27T02:04:56.863Z,64.10
2022-09-27T02:07:26.190Z,63.80
2022-09-27T02:09:57.414Z,63.60
2022-09-27T02:12:26.442Z,63.70
2022-09-27T02:14:55.549Z,63.90
2022-09-27T02:17:31.377Z,63.70
2022-09-27T02:20:30.524Z,63.60
2022-09-27T02:23:00.177Z,63.90
2022-09-27T02:25:30.230Z,63.70
2022-09-27T02:28:29.382Z,63.90
2022-09-27T02:30:56.213Z,63.90
2022-09-27T02:33:37.322Z,63.80
2022-09-27T02:36:04.163Z,63.60
2022-09-27T02:38:31.125Z,63.60
2022-09-27T02:40:57.902Z,64.00
2022-09-27T02:43:27.362Z,63.70
2022-09-27T02:46:01.368Z,63.70
2022-09-27T02:48:31.050Z,64.00
2022-09-27T02:51:05.975Z,63.80
2022-09-27T02:53:51.206Z,64.00
2022-09-27T02:56:26.715Z,64.10
2022-09-27T02:59:12.041Z,64.20
2022-09-27T03:01:57.551Z,64.20
2022-09-27T03:04:28.967Z,64.20
2022-09-27T03:06:56.774Z,64.20
2022-09-27T03:09:25.163Z,64.20
2022-09-27T03:11:52.387Z,64.20
2022-09-27T03:14:19.060Z,64.30
2022-09-27T03:16:45.831Z,64.20
2022-09-27T03:19:12.532Z,64.30
2022-09-27T03:21:40.027Z,64.40
2022-09-27T03:24:06.786Z,64.30
2022-09-27T03:26:33.595Z,64.30
2022-09-27T03:29:00.194Z,64.20
2022-09-27T03:31:26.892Z,64.10
2022-09-27T03:33:53.650Z,64.00
2022-09-27T03:36:20.241Z,64.30
2022-09-27T03:38:46.858Z,64.00
2022-09-27T03:41:13.500Z,63.70
2022-09-27T03:43:40.085Z,64.00
2022-09-27T03:46:06.810Z,64.00
2022-09-27T03:48:33.459Z,63.70
2022-09-27T03:51:00.510Z,63.50
2022-09-27T03:53:27.328Z,63.90
2022-09-27T03:55:53.950Z,63.10
2022-09-27T03:58:20.586Z,63.40
2022-09-27T04:00:47.249Z,63.60
2022-09-27T04:03:13.983Z,63.40
2022-09-27T04:05:40.607Z,63.70
2022-09-27T04:08:07.897Z,64.50
2022-09-27T04:10:34.761Z,63.70
2022-09-27T04:13:01.369Z,63.70
2022-09-27T04:15:28.021Z,63.70
2022-09-27T04:17:54.788Z,63.70
2022-09-27T04:20:21.534Z,63.60
2022-09-27T04:22:48.120Z,63.80
2022-09-27T04:25:14.771Z,63.90
2022-09-27T04:27:45.833Z,63.70
2022-09-27T04:30:12.897Z,63.90
2022-09-27T04:32:43.510Z,64.00
2022-09-27T04:35:29.453Z,63.90
2022-09-27T04:37:56.474Z,63.90
2022-09-27T04:40:23.789Z,63.90
2022-09-27T04:42:50.867Z,63.90
2022-09-27T04:45:17.923Z,64.00
2022-09-27T04:47:45.262Z,64.00
2022-09-27T04:50:12.457Z,63.90
2022-09-27T04:52:39.111Z,64.10
2022-09-27T04:55:06.423Z,64.00
2022-09-27T04:57:33.315Z,64.00
2022-09-27T05:00:00.708Z,64.10
2022-09-27T05:02:27.774Z,64.20
2022-09-27T05:04:59.502Z,63.90
2022-09-27T05:07:29.228Z,63.90
2022-09-27T05:09:56.736Z,64.00
2022-09-27T05:12:24.993Z,64.00
2022-09-27T05:14:51.654Z,64.00
2022-09-27T05:17:19.071Z,64.00
2022-09-27T05:19:45.923Z,64.20
2022-09-27T05:22:12.576Z,64.00
2022-09-27T05:24:39.296Z,64.10
2022-09-27T05:27:08.221Z,64.00
2022-09-27T05:29:37.869Z,64.20
2022-09-27T05:32:04.587Z,64.30
2022-09-27T05:34:32.702Z,64.20
2022-09-27T05:36:59.350Z,64.30
2022-09-27T05:39:26.029Z,64.30
2022-09-27T05:41:54.776Z,64.30
2022-09-27T05:44:22.036Z,64.40
2022-09-27T05:46:49.459Z,64.30
2022-09-27T05:49:16.110Z,64.10
2022-09-27T05:51:42.880Z,64.10
2022-09-27T05:54:09.559Z,64.40
2022-09-27T05:56:36.176Z,64.40
2022-09-27T05:59:02.898Z,64.30
2022-09-27T06:01:29.622Z,64.50
2022-09-27T06:03:56.326Z,64.40
2022-09-27T06:06:23.854Z,64.60
2022-09-27T06:08:50.562Z,64.60
2022-09-27T06:11:17.286Z,64.30
2022-09-27T06:13:43.939Z,64.40
2022-09-27T06:16:11.881Z,64.50
2022-09-27T06:18:38.702Z,64.60
2022-09-27T06:21:06.024Z,64.60
2022-09-27T06:23:32.829Z,64.60
2022-09-27T06:26:03.978Z,64.70
2022-09-27T06:28:31.157Z,64.70
2022-09-27T06:31:00.438Z,64.70
2022-09-27T06:33:30.369Z,64.50
2022-09-27T06:35:57.020Z,64.50
2022-09-27T06:38:24.939Z,64.70
2022-09-27T06:40:51.767Z,64.70
2022-09-27T06:43:20.437Z,64.90
2022-09-27T06:45:47.611Z,64.80
2022-09-27T06:48:16.094Z,64.80
2022-09-27T06:50:44.223Z,64.90
2022-09-27T06:53:11.893Z,64.80
2022-09-27T06:55:38.864Z,64.90
2022-09-27T06:58:24.448Z,64.50
2022-09-27T07:00:53.555Z,64.30
2022-09-27T07:03:23.073Z,64.50
2022-09-27T07:05:57.269Z,64.60
2022-09-27T07:08:26.335Z,64.60
2022-09-27T07:10:54.779Z,64.60
2022-09-27T07:13:21.679Z,64.70
2022-09-27T07:15:48.500Z,64.60
2022-09-27T07:18:15.225Z,64.80
2022-09-27T07:20:41.840Z,64.60
2022-09-27T07:23:09.174Z,64.70
2022-09-27T07:25:35.833Z,64.70
2022-09-27T07:28:03.505Z,64.70
2022-09-27T07:30:30.227Z,64.70
2022-09-27T07:33:00.323Z,64.80
2022-09-27T07:35:28.017Z,64.90
2022-09-27T07:37:56.399Z,64.80
2022-09-27T07:40:23.370Z,64.80
2022-09-27T07:42:56.842Z,64.90
2022-09-27T07:45:23.895Z,64.90
2022-09-27T07:47:50.620Z,65.10
2022-09-27T07:50:17.780Z,65.00
2022-09-27T07:52:45.614Z,65.00
2022-09-27T07:55:13.367Z,65.00
2022-09-27T07:57:40.435Z,65.40
2022-09-27T08:00:08.303Z,65.40
2022-09-27T08:02:34.988Z,65.20
2022-09-27T08:05:02.112Z,64.90
2022-09-27T08:07:29.414Z,65.60
2022-09-27T08:09:56.335Z,65.50
2022-09-27T08:12:22.918Z,65.60
2022-09-27T08:14:49.852Z,65.40
2022-09-27T08:17:17.374Z,65.30
2022-09-27T08:19:45.305Z,65.70
2022-09-27T08:22:14.966Z,65.70
2022-09-27T08:24:41.794Z,65.70
2022-09-27T08:27:11.739Z,65.90
2022-09-27T08:29:41.920Z,65.80
2022-09-27T08:32:09.246Z,65.90
2022-09-27T08:34:35.986Z,65.80
2022-09-27T08:37:02.772Z,65.30
2022-09-27T08:39:29.526Z,65.50
2022-09-27T08:42:16.182Z,65.80
2022-09-27T08:44:49.203Z,65.80
2022-09-27T08:47:17.481Z,66.10
2022-09-27T08:49:50.416Z,65.90
2022-09-27T08:52:27.598Z,66.00
2022-09-27T08:54:55.670Z,66.20
2022-09-27T08:57:24.136Z,65.80
2022-09-27T08:59:54.919Z,65.60
2022-09-27T09:02:24.568Z,65.60
2022-09-27T09:04:52.703Z,65.80
2022-09-27T09:07:38.096Z,65.90
2022-09-27T09:10:43.542Z,65.80
2022-09-27T09:13:42.499Z,65.80
2022-09-27T09:16:15.954Z,66.00
2022-09-27T09:19:06.114Z,66.00
2022-09-27T09:21:32.719Z,66.20
2022-09-27T09:23:59.322Z,66.20
2022-09-27T09:26:44.645Z,66.20
2022-09-27T09:29:18.922Z,66.20
2022-09-27T09:31:48.371Z,66.00
2022-09-27T09:34:20.730Z,65.90
2022-09-27T09:36:50.501Z,65.80
2022-09-27T09:39:20.390Z,66.50
2022-09-27T09:41:53.734Z,65.90
2022-09-27T09:44:29.127Z,66.00
2022-09-27T09:46:57.813Z,66.10
2022-09-27T09:49:34.294Z,66.00
2022-09-27T09:52:10.382Z,66.10
2022-09-27T09:54:40.411Z,66.20
2022-09-27T09:57:12.333Z,66.20
2022-09-27T09:59:43.085Z,66.30
2022-09-27T10:02:28.834Z,66.40
2022-09-27T10:04:55.742Z,66.40
2022-09-27T10:07:25.867Z,66.20
2022-09-27T10:09:53.589Z,66.30
2022-09-27T10:12:20.335Z,66.40
2022-09-27T10:14:48.127Z,66.40
2022-09-27T10:17:17.901Z,66.40
2022-09-27T10:19:45.348Z,66.50
2022-09-27T10:22:12.250Z,66.40
2022-09-27T10:24:56.230Z,66.50
2022-09-27T10:27:23.663Z,66.60
2022-09-27T10:29:56.510Z,66.50
2022-09-27T10:32:36.604Z,66.40
2022-09-27T10:35:23.709Z,66.30
2022-09-27T10:37:51.127Z,66.40
2022-09-27T10:40:33.712Z,66.40
2022-09-27T10:43:00.456Z,66.60
2022-09-27T10:45:27.358Z,66.60
2022-09-27T10:47:54.391Z,66.70
2022-09-27T10:50:51.600Z,66.80
2022-09-27T10:53:21.671Z,66.90
2022-09-27T10:55:49.894Z,66.90
2022-09-27T10:58:31.821Z,66.90
2022-09-27T11:01:01.426Z,67.00
2022-09-27T11:03:29.242Z,66.80
2022-09-27T11:05:56.055Z,66.60
2022-09-27T11:08:26.014Z,66.80
2022-09-27T11:11:07.666Z,66.80
2022-09-27T11:13:35.636Z,66.60
2022-09-27T11:16:02.253Z,66.90
2022-09-27T11:18:39.174Z,67.00
2022-09-27T11:21:05.818Z,66.80
2022-09-27T11:23:52.703Z,67.00
2022-09-27T11:26:38.637Z,66.80
2022-09-27T11:29:17.413Z,66.60
2022-09-27T11:31:53.462Z,66.80
2022-09-27T11:34:29.155Z,66.80
2022-09-27T11:37:14.683Z,66.80
2022-09-27T11:39:56.775Z,66.80
2022-09-27T11:42:42.302Z,66.80
2022-09-27T11:45:41.027Z,66.80
2022-09-27T11:48:35.062Z,66.80
2022-09-27T11:51:27.850Z,66.90
2022-09-27T11:54:20.080Z,66.80
2022-09-27T11:56:49.805Z,66.70
2022-09-27T11:59:38.437Z,66.60
2022-09-27T12:02:14.283Z,66.40
2022-09-27T12:04:53.054Z,66.30
2022-09-27T12:07:32.014Z,66.70
2022-09-27T12:10:02.059Z,66.80
2022-09-27T12:12:31.979Z,67.30
2022-09-27T12:15:05.753Z,66.80
2022-09-27T12:17:36.142Z,66.70
2022-09-27T12:20:06.935Z,66.80
2022-09-27T12:22:57.673Z,66.80
2022-09-27T12:25:24.884Z,66.70
2022-09-27T12:28:04.087Z,66.70
2022-09-27T12:33:25.940Z,66.50
2022-09-27T12:35:57.573Z,66.70
2022-09-27T12:38:30.108Z,66.60
2022-09-27T12:40:58.561Z,66.60
2022-09-27T12:43:29.239Z,66.70
2022-09-27T12:46:05.115Z,66.70
2022-09-27T12:48:57.699Z,66.70
2022-09-27T12:51:24.511Z,66.80
2022-09-27T12:54:09.080Z,66.80
2022-09-27T12:56:45.473Z,66.80
2022-09-27T12:59:20.071Z,66.90
2022-09-27T13:01:49.877Z,66.60
2022-09-27T13:04:19.324Z,66.70
2022-09-27T13:07:01.363Z,66.90
2022-09-27T13:09:48.294Z,67.10
2022-09-27T13:12:22.594Z,67.00
2022-09-27T13:15:03.867Z,67.10
2022-09-27T13:17:44.540Z,67.10
2022-09-27T13:20:34.495Z,67.40
2022-09-27T13:23:02.227Z,67.40
2022-09-27T13:25:52.952Z,67.30
2022-09-27T13:28:35.614Z,67.40
2022-09-27T13:31:03.986Z,66.80
2022-09-27T13:33:37.473Z,67.20
2022-09-27T13:36:06.880Z,67.30
2022-09-27T13:38:33.670Z,67.40
2022-09-27T13:41:17.726Z,67.40
2022-09-27T13:44:05.167Z,67.30
2022-09-27T13:46:34.261Z,67.20
2022-09-27T13:49:15.338Z,67.20
2022-09-27T13:52:00.504Z,67.30
2022-09-27T13:54:39.004Z,68.00
2022-09-27T13:57:09.755Z,67.40
2022-09-27T13:59:36.427Z,67.40
2022-09-27T14:02:09.171Z,67.50
2022-09-27T14:04:41.225Z,67.50
2022-09-27T14:07:09.249Z,67.60
2022-09-27T14:09:38.973Z,67.40
2022-09-27T14:12:10.265Z,67.80
2022-09-27T14:14:37.508Z,67.50
2022-09-27T14:17:10.032Z,67.10
2022-09-27T14:19:39.862Z,67.50
2022-09-27T14:22:11.895Z,67.20
2022-09-27T14:24:38.526Z,67.30
2022-09-27T14:27:14.160Z,67.40
2022-09-27T14:29:44.844Z,67.40
2022-09-27T14:32:13.307Z,67.50
2022-09-27T14:34:40.353Z,67.40
2022-09-27T14:37:24.186Z,67.40
2022-09-27T14:39:54.849Z,67.30
2022-09-27T14:42:24.936Z,67.50
2022-09-27T14:44:51.825Z,67.50
2022-09-27T14:47:23.226Z,67.20
2022-09-27T14:49:55.724Z,67.30
2022-09-27T14:52:28.487Z,67.50
2022-09-27T14:54:56.287Z,67.30
2022-09-27T14:57:23.103Z,67.20
2022-09-27T14:59:49.724Z,67.30
2022-09-27T15:02:20.201Z,67.30
2022-09-27T15:04:48.045Z,67.30
2022-09-27T15:07:17.751Z,67.20
2022-09-27T15:09:45.494Z,67.40
2022-09-27T15:12:20.710Z,67.30
2022-09-27T15:14:53.298Z,67.20
2022-09-27T15:17:21.328Z,67.30
2022-09-27T15:20:01.891Z,67.30
2022-09-27T15:22:44.648Z,67.40
2022-09-27T15:25:32.480Z,67.40
2022-09-27T15:27:59.988Z,67.40
2022-09-27T15:30:30.157Z,66.90
2022-09-27T15:32:57.294Z,67.00
2022-09-27T15:35:26.201Z,67.10
2022-09-27T15:38:04.851Z,67.30
2022-09-27T15:40:43.678Z,67.40
2022-09-27T15:43:20.063Z,67.30
2022-09-27T15:45:50.581Z,67.40
2022-09-27T15:48:20.086Z,67.50
2022-09-27T15:50:48.264Z,67.40
2022-09-27T15:53:33.179Z,66.70
2022-09-27T15:56:00.763Z,67.30
2022-09-27T15:58:27.719Z,67.10
2022-09-27T16:00:57.411Z,67.30
2022-09-27T16:03:25.335Z,67.30
2022-09-27T16:05:52.687Z,67.40
2022-09-27T16:08:19.271Z,67.30
2022-09-27T16:10:48.731Z,67.30
2022-09-27T16:13:15.378Z,67.30
2022-09-27T16:15:42.075Z,67.30
2022-09-27T16:18:10.033Z,67.20
2022-09-27T16:20:36.766Z,67.20
2022-09-27T16:23:03.359Z,67.20
2022-09-27T16:25:30.095Z,67.10
2022-09-27T16:28:00.268Z,67.10
2022-09-27T16:30:27.171Z,67.30
2022-09-27T16:32:54.563Z,67.30
2022-09-27T16:35:22.425Z,67.30
2022-09-27T16:37:49.061Z,67.30
2022-09-27T16:40:17.942Z,67.30
2022-09-27T16:42:45.027Z,67.30
2022-09-27T16:45:15.635Z,67.40
2022-09-27T16:47:44.934Z,67.20
2022-09-27T16:50:33.200Z,67.20
2022-09-27T16:53:00.320Z,67.10
2022-09-27T16:55:28.757Z,67.20
2022-09-27T16:57:58.037Z,67.10
2022-09-27T17:00:25.307Z,67.00
2022-09-27T17:02:53.146Z,67.10
2022-09-27T17:05:20.271Z,67.00
2022-09-27T17:07:49.965Z,67.00
2022-09-27T17:10:17.228Z,67.00
2022-09-27T17:12:43.903Z,66.90
2022-09-27T17:15:10.499Z,67.00
2022-09-27T17:17:37.145Z,66.80
2022-09-27T17:20:04.146Z,66.60
2022-09-27T17:22:31.002Z,66.40
2022-09-27T17:24:57.942Z,66.50
2022-09-27T17:27:27.981Z,66.50
2022-09-27T17:29:54.947Z,66.50
2022-09-27T17:32:24.265Z,66.40
2022-09-27T17:34:51.748Z,66.50
2022-09-27T17:37:18.377Z,66.50
2022-09-27T17:39:45.058Z,66.80
2022-09-27T17:42:11.882Z,66.20
2022-09-27T17:44:38.583Z,66.70
2022-09-27T17:47:23.858Z,66.70
2022-09-27T17:50:08.997Z,66.40
2022-09-27T17:52:35.620Z,66.60
2022-09-27T17:55:03.459Z,66.30
2022-09-27T17:57:30.231Z,66.50
2022-09-27T17:59:58.066Z,66.20
2022-09-27T18:02:25.248Z,66.40
2022-09-27T18:04:51.957Z,66.40
2022-09-27T18:07:19.842Z,66.40
2022-09-27T18:09:46.737Z,66.50
2022-09-27T18:12:13.791Z,66.50
2022-09-27T18:14:40.561Z,66.40
2022-09-27T18:17:07.364Z,66.40
2022-09-27T18:19:33.985Z,66.40
2022-09-27T18:22:00.887Z,66.50
2022-09-27T18:24:27.650Z,66.40
2022-09-27T18:26:55.903Z,66.40
2022-09-27T18:29:22.906Z,66.30
2022-09-27T18:31:49.669Z,66.30
2022-09-27T18:34:17.495Z,66.40
2022-09-27T18:36:44.676Z,66.40
2022-09-27T18:39:12.531Z,66.60
2022-09-27T18:41:39.178Z,66.50
2022-09-27T18:44:06.457Z,66.80
2022-09-27T18:46:36.181Z,66.60
2022-09-27T18:49:07.650Z,66.40
2022-09-27T18:51:37.263Z,66.20
2022-09-27T18:54:05.269Z,66.00
2022-09-27T18:56:34.963Z,65.80
2022-09-27T18:59:01.619Z,65.70
2022-09-27T19:01:28.387Z,65.60
2022-09-27T19:03:55.021Z,65.60
2022-09-27T19:06:22.723Z,65.70
2022-09-27T19:08:58.625Z,65.70
2022-09-27T19:11:26.519Z,65.80
2022-09-27T19:13:54.244Z,65.90
2022-09-27T19:16:21.733Z,65.90
2022-09-27T19:18:48.834Z,65.90
2022-09-27T19:21:17.217Z,65.90
2022-09-27T19:23:44.125Z,65.90
2022-09-27T19:26:12.733Z,66.00
2022-09-27T19:28:40.459Z,66.00
2022-09-27T19:31:08.065Z,66.00
2022-09-27T19:33:35.477Z,66.00
2022-09-27T19:36:02.639Z,66.90
2022-09-27T19:38:30.045Z,66.10
2022-09-27T19:40:56.803Z,66.10
2022-09-27T19:43:23.503Z,66.00
2022-09-27T19:45:50.147Z,66.10
2022-09-27T19:48:17.172Z,66.10
2022-09-27T19:50:43.918Z,66.10
2022-09-27T19:53:10.579Z,66.10
2022-09-27T19:55:37.282Z,66.20
2022-09-27T19:58:03.964Z,66.10
2022-09-27T20:00:30.679Z,66.20
2022-09-27T20:02:57.354Z,66.10
2022-09-27T20:05:24.086Z,66.20
2022-09-27T20:07:53.902Z,66.20
2022-09-27T20:10:20.618Z,66.30
2022-09-27T20:12:49.601Z,66.10
2022-09-27T20:15:17.806Z,66.20
2022-09-27T20:17:44.412Z,66.20
2022-09-27T20:20:11.107Z,66.00
2022-09-27T20:22:37.728Z,66.10
2022-09-27T20:25:04.548Z,66.30
2022-09-27T20:27:31.185Z,66.30
2022-09-27T20:29:58.327Z,66.30
2022-09-27T20:32:28.580Z,66.20
2022-09-27T20:34:55.466Z,66.20
2022-09-27T20:37:22.143Z,66.20
2022-09-27T20:39:49.504Z,66.20
2022-09-27T20:42:16.166Z,66.20
2022-09-27T20:44:42.947Z,66.10
2022-09-27T20:47:09.640Z,66.10
2022-09-27T20:49:36.403Z,66.20
2022-09-27T20:52:03.014Z,66.20
2022-09-27T20:54:29.714Z,66.00
2022-09-27T20:56:56.509Z,66.00
2022-09-27T20:59:23.502Z,65.90
2022-09-27T21:01:51.346Z,65.80
2022-09-27T21:04:18.941Z,65.80
2022-09-27T21:06:45.758Z,65.80
2022-09-27T21:09:18.364Z,65.80
2022-09-27T21:11:48.860Z,65.80
2022-09-27T21:14:15.560Z,65.40
2022-09-27T21:16:42.370Z,65.50
2022-09-27T21:19:09.931Z,65.50
2022-09-27T21:21:36.714Z,65.20
2022-09-27T21:24:03.482Z,65.10
2022-09-27T21:26:31.254Z,65.20
2022-09-27T21:28:59.015Z,65.10
2022-09-27T21:31:30.002Z,65.00
2022-09-27T21:33:59.127Z,65.00
2022-09-27T21:36:27.115Z,64.70
2022-09-27T21:38:54.318Z,64.70
2022-09-27T21:41:21.393Z,64.70
2022-09-27T21:43:48.881Z,64.60
2022-09-27T21:46:17.086Z,64.70
2022-09-27T21:48:44.858Z,64.80
2022-09-27T21:51:12.981Z,64.40
2022-09-27T21:53:40.893Z,64.50
2022-09-27T21:56:08.743Z,64.30
2022-09-27T21:58:36.175Z,64.70
2022-09-27T22:01:13.299Z,64.40
2022-09-27T22:03:42.743Z,64.50
2022-09-27T22:06:10.676Z,64.50
2022-09-27T22:08:37.793Z,64.00
2022-09-27T22:11:04.610Z,64.10
2022-09-27T22:13:31.610Z,64.10
2022-09-27T22:16:05.521Z,64.10
2022-09-27T22:18:35.258Z,64.20
2022-09-27T22:21:05.983Z,64.10
2022-09-27T22:23:33.214Z,63.90
2022-09-27T22:26:00.380Z,63.70
2022-09-27T22:28:27.123Z,64.20
2022-09-27T22:30:53.833Z,64.80
2022-09-27T22:33:20.541Z,63.80
2022-09-27T22:35:47.752Z,63.90
2022-09-27T22:38:15.037Z,64.10
2022-09-27T22:40:41.789Z,63.70
2022-09-27T22:43:08.421Z,63.70
2022-09-27T22:45:35.018Z,64.00
2022-09-27T22:48:01.779Z,63.70
2022-09-27T22:50:28.382Z,63.80
2022-09-27T22:52:55.025Z,64.20
2022-09-27T22:55:21.629Z,63.70
2022-09-27T22:57:48.339Z,63.60
2022-09-27T23:00:14.951Z,63.90
2022-09-27T23:02:41.571Z,64.40
2022-09-27T23:05:08.522Z,63.80
2022-09-27T23:07:35.168Z,64.00
2022-09-27T23:10:01.802Z,64.70
2022-09-27T23:12:28.387Z,63.70
2022-09-27T23:14:55.016Z,65.90
2022-09-27T23:17:21.645Z,65.00
2022-09-27T23:19:48.292Z,64.20
2022-09-27T23:22:14.906Z,64.40
2022-09-27T23:24:41.504Z,63.70
2022-09-27T23:27:26.983Z,65.80
2022-09-27T23:29:53.666Z,64.10
2022-09-27T23:32:20.272Z,64.00
2022-09-27T23:34:46.880Z,65.00
2022-09-27T23:37:13.530Z,64.20
2022-09-27T23:39:40.179Z,63.80
2022-09-27T23:42:06.843Z,64.00
2022-09-27T23:44:33.467Z,64.50
2022-09-27T23:47:00.513Z,64.10
2022-09-27T23:49:27.444Z,64.40
2022-09-27T23:51:54.897Z,64.50
2022-09-27T23:54:21.671Z,65.90
2022-09-27T23:56:49.389Z,64.30
2022-09-27T23:59:17.047Z,63.90
